createdAt,value
2019-05-06T00:01:29.007Z,3.22
2019-05-06T00:04:01.013Z,3.80
2019-05-06T00:06:34.388Z,3.60
2019-05-06T00:09:05.908Z,3.58
2019-05-06T00:11:38.131Z,3.98
2019-05-06T00:14:09.426Z,3.47
2019-05-06T00:16:40.889Z,3.58
2019-05-06T00:19:13.901Z,3.67
2019-05-06T00:21:44.945Z,4.33
2019-05-06T00:24:16.500Z,4.47
2019-05-06T00:26:55.129Z,3.83
2019-05-06T00:29:27.067Z,4.58
2019-05-06T00:31:58.341Z,4.60
2019-05-06T00:34:29.562Z,4.30
2019-05-06T00:37:00.714Z,4.20
2019-05-06T00:39:45.681Z,4.45
2019-05-06T00:42:18.621Z,5.15
2019-05-06T00:44:50.137Z,4.37
2019-05-06T00:47:21.487Z,4.05
2019-05-06T00:49:54.616Z,4.72
2019-05-06T00:52:26.148Z,4.65
2019-05-06T00:54:57.175Z,4.30
2019-05-06T00:57:44.032Z,4.53
2019-05-06T01:00:17.657Z,5.35
2019-05-06T01:02:48.855Z,5.40
2019-05-06T01:05:20.018Z,4.67
2019-05-06T01:07:51.439Z,4.67
2019-05-06T01:10:23.814Z,4.40
2019-05-06T01:12:59.869Z,4.17
2019-05-06T01:15:31.551Z,4.53
2019-05-06T01:18:04.251Z,4.30
2019-05-06T01:20:35.680Z,4.10
2019-05-06T01:23:06.938Z,4.65
2019-05-06T01:25:38.437Z,3.83
2019-05-06T01:28:10.048Z,4.22
2019-05-06T01:30:41.679Z,3.95
2019-05-06T01:33:14.461Z,3.83
2019-05-06T01:35:45.735Z,4.33
2019-05-06T01:38:34.092Z,4.20
2019-05-06T01:41:19.007Z,3.67
2019-05-06T01:43:50.412Z,4.53
2019-05-06T01:46:21.766Z,4.28
2019-05-06T01:48:53.715Z,4.62
2019-05-06T01:51:24.881Z,3.90
2019-05-06T01:53:56.341Z,4.42
2019-05-06T01:56:28.440Z,4.70
2019-05-06T01:58:59.458Z,4.40
2019-05-06T02:01:30.597Z,4.50
2019-05-06T02:04:01.641Z,4.50
2019-05-06T02:06:34.266Z,4.17
2019-05-06T02:09:09.974Z,4.35
2019-05-06T02:11:41.014Z,4.35
2019-05-06T02:14:14.000Z,3.85
2019-05-06T02:16:45.570Z,3.98
2019-05-06T02:19:16.810Z,4.50
2019-05-06T02:21:54.313Z,4.35
2019-05-06T02:24:30.262Z,4.53
2019-05-06T02:27:01.930Z,3.87
2019-05-06T02:29:37.480Z,3.83
2019-05-06T02:32:31.185Z,4.65
2019-05-06T02:35:14.953Z,4.25
2019-05-06T02:37:46.924Z,4.72
2019-05-06T02:40:25.131Z,4.45
2019-05-06T02:42:56.749Z,4.67
2019-05-06T02:45:28.297Z,4.22
2019-05-06T02:48:13.979Z,4.60
2019-05-06T02:50:47.081Z,4.37
2019-05-06T02:53:19.767Z,4.30
2019-05-06T02:55:53.163Z,4.78
2019-05-06T02:58:24.720Z,4.67
2019-05-06T03:00:56.049Z,4.70
2019-05-06T03:03:27.535Z,4.42
2019-05-06T03:05:58.937Z,4.33
2019-05-06T03:08:32.702Z,4.08
2019-05-06T03:11:04.220Z,4.03
2019-05-06T03:13:37.031Z,4.85
2019-05-06T03:16:08.898Z,4.05
2019-05-06T03:18:43.117Z,4.15
2019-05-06T03:21:26.548Z,3.95
2019-05-06T03:24:17.876Z,3.98
2019-05-06T03:26:53.439Z,4.00
2019-05-06T03:29:25.334Z,3.45
2019-05-06T03:31:57.531Z,4.12
2019-05-06T03:34:52.493Z,4.65
2019-05-06T03:37:06.648Z,4.08
2019-05-06T03:39:35.106Z,4.35
2019-05-06T03:42:06.168Z,4.50
2019-05-06T03:44:39.121Z,3.95
2019-05-06T03:47:13.933Z,4.67
2019-05-06T03:49:54.386Z,5.05
2019-05-06T03:52:23.647Z,4.10
2019-05-06T03:54:55.688Z,4.10
2019-05-06T03:57:28.144Z,4.47
2019-05-06T03:59:59.928Z,4.20
2019-05-06T04:02:33.638Z,4.25
2019-05-06T04:05:06.525Z,4.30
2019-05-06T04:07:37.778Z,3.72
2019-05-06T04:10:08.822Z,4.12
2019-05-06T04:12:43.322Z,4.25
2019-05-06T04:15:14.198Z,4.58
2019-05-06T04:17:47.069Z,4.47
2019-05-06T04:20:23.393Z,4.65
2019-05-06T04:22:54.698Z,4.80
2019-05-06T04:25:44.263Z,4.70
2019-05-06T04:28:17.244Z,4.70
2019-05-06T04:30:49.117Z,4.20
2019-05-06T04:33:20.084Z,3.80
2019-05-06T04:35:54.073Z,4.47
2019-05-06T04:38:24.607Z,4.20
2019-05-06T04:40:56.003Z,4.42
2019-05-06T04:43:27.549Z,4.62
2019-05-06T04:45:58.771Z,4.80
2019-05-06T04:48:32.942Z,4.20
2019-05-06T04:51:03.930Z,5.33
2019-05-06T04:53:35.598Z,4.08
2019-05-06T04:56:06.949Z,3.77
2019-05-06T04:58:38.194Z,3.95
2019-05-06T05:01:12.142Z,4.22
2019-05-06T05:03:42.807Z,5.10
2019-05-06T05:06:13.884Z,4.62
2019-05-06T05:08:45.142Z,5.20
2019-05-06T05:11:22.657Z,4.92
2019-05-06T05:14:02.871Z,4.67
2019-05-06T05:16:52.734Z,3.95
2019-05-06T05:19:23.625Z,4.62
2019-05-06T05:21:56.821Z,4.45
2019-05-06T05:24:28.994Z,4.75
2019-05-06T05:27:00.144Z,4.45
2019-05-06T05:29:32.564Z,4.72
2019-05-06T05:32:05.097Z,4.17
2019-05-06T05:34:40.648Z,4.17
2019-05-06T05:37:08.939Z,4.65
2019-05-06T05:39:40.079Z,4.65
2019-05-06T05:42:16.140Z,4.90
2019-05-06T05:44:49.238Z,4.83
2019-05-06T05:47:22.096Z,5.53
2019-05-06T05:50:03.943Z,5.20
2019-05-06T05:52:35.477Z,4.75
2019-05-06T05:55:07.029Z,5.00
2019-05-06T05:57:38.280Z,5.22
2019-05-06T06:00:10.152Z,5.15
2019-05-06T06:02:43.694Z,4.55
2019-05-06T06:05:14.621Z,5.53
2019-05-06T06:07:46.152Z,5.10
2019-05-06T06:10:22.662Z,4.75
2019-05-06T06:12:55.320Z,4.40
2019-05-06T06:15:44.276Z,5.10
2019-05-06T06:18:33.756Z,5.95
2019-05-06T06:21:24.713Z,4.25
2019-05-06T06:23:53.452Z,4.20
2019-05-06T06:26:24.862Z,3.80
2019-05-06T06:28:56.177Z,4.45
2019-05-06T06:31:29.152Z,3.90
2019-05-06T06:34:02.242Z,3.47
2019-05-06T06:36:52.605Z,4.15
2019-05-06T06:39:32.693Z,3.92
2019-05-06T06:42:03.958Z,3.70
2019-05-06T06:44:36.232Z,3.30
2019-05-06T06:47:08.396Z,4.70
2019-05-06T06:49:42.237Z,3.35
2019-05-06T06:52:14.855Z,3.05
2019-05-06T06:54:45.933Z,3.17
2019-05-06T06:57:34.222Z,3.30
2019-05-06T07:00:06.723Z,2.98
2019-05-06T07:02:55.036Z,2.75
2019-05-06T07:05:33.932Z,2.50
2019-05-06T07:08:05.393Z,3.08
2019-05-06T07:10:46.062Z,3.12
2019-05-06T07:13:17.323Z,2.40
2019-05-06T07:15:48.698Z,2.70
2019-05-06T07:18:22.442Z,2.40
2019-05-06T07:20:57.521Z,2.10
2019-05-06T07:23:32.543Z,2.50
2019-05-06T07:26:03.257Z,2.20
2019-05-06T07:28:34.539Z,2.67
2019-05-06T07:31:20.694Z,2.83
2019-05-06T07:33:38.964Z,2.37
2019-05-06T07:36:10.182Z,2.70
2019-05-06T07:38:43.649Z,2.52
2019-05-06T07:41:19.351Z,2.15
2019-05-06T07:43:52.635Z,2.58
2019-05-06T07:46:29.510Z,3.35
2019-05-06T07:49:03.323Z,2.62
2019-05-06T07:51:34.047Z,2.20
2019-05-06T07:54:05.274Z,1.85
2019-05-06T07:56:36.748Z,1.75
2019-05-06T07:59:08.157Z,2.10
2019-05-06T08:01:40.224Z,2.40
2019-05-06T08:04:12.026Z,1.82
2019-05-06T08:06:43.210Z,1.92
2019-05-06T08:09:15.450Z,2.10
2019-05-06T08:11:46.774Z,1.87
2019-05-06T08:14:18.125Z,2.12
2019-05-06T08:17:02.217Z,1.98
2019-05-06T08:19:33.709Z,2.15
2019-05-06T08:22:06.709Z,2.37
2019-05-06T08:24:37.997Z,2.20
2019-05-06T08:27:09.412Z,1.98
2019-05-06T08:29:42.479Z,1.67
2019-05-06T08:32:13.852Z,1.50
2019-05-06T08:34:45.047Z,1.85
2019-05-06T08:37:33.457Z,1.60
2019-05-06T08:40:06.651Z,2.58
2019-05-06T08:42:38.006Z,1.62
2019-05-06T08:45:09.660Z,2.25
2019-05-06T08:47:42.591Z,1.92
2019-05-06T08:50:25.065Z,1.77
2019-05-06T08:53:09.977Z,2.22
2019-05-06T08:55:52.941Z,1.52
2019-05-06T08:58:25.838Z,1.50
2019-05-06T09:01:05.109Z,1.60
2019-05-06T09:03:36.643Z,1.60
2019-05-06T09:06:07.880Z,1.50
2019-05-06T09:08:39.462Z,1.45
2019-05-06T09:11:12.202Z,1.65
2019-05-06T09:13:43.222Z,2.08
2019-05-06T09:16:14.728Z,1.65
2019-05-06T09:18:46.182Z,2.05
2019-05-06T09:21:17.223Z,1.77
2019-05-06T09:23:48.534Z,1.98
2019-05-06T09:26:22.439Z,1.60
2019-05-06T09:28:55.274Z,1.32
2019-05-06T09:31:28.264Z,1.80
2019-05-06T09:34:03.756Z,1.37
2019-05-06T09:36:44.215Z,1.50
2019-05-06T09:39:08.733Z,1.75
2019-05-06T09:41:45.926Z,1.72
2019-05-06T09:44:14.341Z,1.85
2019-05-06T09:46:45.482Z,1.20
2019-05-06T09:49:22.892Z,1.20
2019-05-06T09:51:54.026Z,1.30
2019-05-06T09:54:27.130Z,1.60
2019-05-06T09:57:12.905Z,1.50
2019-05-06T09:59:44.140Z,1.42
2019-05-06T10:02:15.508Z,1.22
2019-05-06T10:04:46.996Z,1.70
2019-05-06T10:07:18.328Z,1.75
2019-05-06T10:09:49.579Z,1.35
2019-05-06T10:12:20.614Z,1.40
2019-05-06T10:14:53.222Z,1.42
2019-05-06T10:17:24.461Z,1.22
2019-05-06T10:19:55.529Z,1.55
2019-05-06T10:22:27.049Z,1.50
2019-05-06T10:24:58.461Z,1.50
2019-05-06T10:27:30.672Z,1.30
2019-05-06T10:30:03.668Z,1.50
2019-05-06T10:32:47.396Z,2.02
2019-05-06T10:35:18.662Z,2.85
2019-05-06T10:38:05.011Z,1.67
2019-05-06T10:40:57.353Z,1.60
2019-05-06T10:43:53.938Z,1.80
2019-05-06T10:46:25.081Z,1.72
2019-05-06T10:48:56.537Z,1.25
2019-05-06T10:51:45.667Z,1.45
2019-05-06T10:54:18.373Z,1.45
2019-05-06T10:56:56.912Z,1.47
2019-05-06T10:59:24.409Z,1.30
2019-05-06T11:01:57.459Z,1.70
2019-05-06T11:04:28.893Z,1.40
2019-05-06T11:07:00.270Z,2.02
2019-05-06T11:09:33.285Z,2.02
2019-05-06T11:12:04.819Z,2.60
2019-05-06T11:14:35.999Z,2.15
2019-05-06T11:17:07.411Z,1.80
2019-05-06T11:19:38.757Z,1.50
2019-05-06T11:22:09.910Z,2.10
2019-05-06T11:24:42.179Z,2.05
2019-05-06T11:27:27.495Z,2.35
2019-05-06T11:29:52.929Z,1.98
2019-05-06T11:32:25.201Z,2.55
2019-05-06T11:34:58.072Z,2.55
2019-05-06T11:37:46.355Z,6.15
2019-05-06T11:42:37.206Z,3.02
2019-05-06T11:45:08.949Z,2.25
2019-05-06T11:47:42.065Z,2.50
2019-05-06T11:50:13.240Z,2.02
2019-05-06T11:52:44.320Z,2.42
2019-05-06T11:55:27.833Z,1.37
2019-05-06T11:57:49.798Z,1.20
2019-05-06T12:00:23.927Z,1.47
2019-05-06T12:02:55.165Z,1.35
2019-05-06T12:05:26.614Z,1.30
2019-05-06T12:08:04.605Z,2.08
2019-05-06T12:10:30.548Z,3.90
2019-05-06T12:13:02.804Z,1.60
2019-05-06T12:15:34.057Z,1.50
2019-05-06T12:18:05.121Z,1.65
2019-05-06T12:20:36.541Z,1.70
2019-05-06T12:23:07.994Z,1.35
2019-05-06T12:25:39.380Z,1.60
2019-05-06T12:28:12.374Z,1.50
2019-05-06T12:30:43.710Z,1.20
2019-05-06T12:33:28.858Z,1.70
2019-05-06T12:36:18.868Z,1.65
2019-05-06T12:39:09.773Z,1.30
2019-05-06T12:41:57.764Z,1.42
2019-05-06T12:44:32.135Z,1.22
2019-05-06T12:47:20.860Z,1.10
2019-05-06T12:49:53.400Z,1.25
2019-05-06T12:52:24.798Z,0.90
2019-05-06T12:55:13.641Z,1.30
2019-05-06T12:57:29.656Z,1.57
2019-05-06T13:00:03.523Z,1.52
2019-05-06T13:02:34.480Z,1.30
2019-05-06T13:05:07.448Z,1.15
2019-05-06T13:07:42.825Z,1.72
2019-05-06T13:10:19.170Z,1.50
2019-05-06T13:12:54.092Z,1.70
2019-05-06T13:15:24.700Z,1.30
2019-05-06T13:17:55.980Z,1.40
2019-05-06T13:20:29.999Z,1.67
2019-05-06T13:25:36.205Z,1.80
2019-05-06T13:28:09.536Z,1.10
2019-05-06T13:30:43.341Z,1.55
2019-05-06T13:33:16.108Z,1.45
2019-05-06T13:35:47.738Z,1.77
2019-05-06T13:38:19.012Z,1.40
2019-05-06T13:40:57.089Z,1.67
2019-05-06T13:43:27.210Z,1.95
2019-05-06T13:46:00.074Z,1.77
2019-05-06T13:48:33.032Z,2.98
2019-05-06T13:51:14.961Z,2.10
2019-05-06T13:53:46.922Z,2.50
2019-05-06T13:56:18.095Z,1.50
2019-05-06T13:58:49.630Z,3.55
2019-05-06T14:01:34.601Z,2.35
2019-05-06T14:04:05.896Z,2.15
2019-05-06T14:06:37.307Z,1.47
2019-05-06T14:09:08.813Z,1.90
2019-05-06T14:11:42.000Z,2.35
2019-05-06T14:14:13.016Z,2.15
2019-05-06T14:16:44.256Z,2.62
2019-05-06T14:19:15.714Z,1.77
2019-05-06T14:21:46.854Z,2.05
2019-05-06T14:24:18.219Z,1.75
2019-05-06T14:26:57.981Z,2.40
2019-05-06T14:29:34.846Z,2.37
2019-05-06T14:32:06.399Z,2.33
2019-05-06T14:34:37.650Z,2.45
2019-05-06T14:37:09.006Z,2.50
2019-05-06T14:39:53.867Z,2.60
2019-05-06T14:42:17.952Z,1.40
2019-05-06T14:44:49.303Z,1.70
2019-05-06T14:47:32.750Z,1.57
2019-05-06T14:50:07.947Z,1.40
2019-05-06T14:52:39.750Z,2.00
2019-05-06T14:55:27.679Z,1.72
2019-05-06T14:57:59.060Z,1.82
2019-05-06T15:00:31.974Z,2.20
2019-05-06T15:03:03.160Z,2.20
2019-05-06T15:05:36.337Z,1.55
2019-05-06T15:08:07.401Z,1.75
2019-05-06T15:10:38.859Z,1.30
2019-05-06T15:13:12.506Z,1.42
2019-05-06T15:15:43.185Z,1.47
2019-05-06T15:18:14.354Z,1.37
2019-05-06T15:20:45.653Z,1.30
2019-05-06T15:23:17.033Z,1.22
2019-05-06T15:25:48.085Z,1.15
2019-05-06T15:28:19.347Z,1.40
2019-05-06T15:30:58.318Z,1.50
2019-05-06T15:33:39.934Z,1.27
2019-05-06T15:36:16.105Z,1.22
2019-05-06T15:38:47.147Z,1.12
2019-05-06T15:41:19.410Z,1.20
2019-05-06T15:43:50.606Z,1.02
2019-05-06T15:46:22.852Z,1.40
2019-05-06T15:48:55.473Z,1.63
2019-05-06T15:51:35.877Z,1.47
2019-05-06T15:54:07.123Z,2.00
2019-05-06T15:56:38.536Z,1.40
2019-05-06T15:59:12.135Z,1.40
2019-05-06T16:01:45.543Z,1.65
2019-05-06T16:04:16.719Z,1.85
2019-05-06T16:06:47.783Z,2.55
2019-05-06T16:09:19.204Z,1.65
2019-05-06T16:11:50.276Z,1.92
2019-05-06T16:14:23.877Z,2.00
2019-05-06T16:16:56.526Z,1.82
2019-05-06T16:19:29.359Z,2.22
2019-05-06T16:22:03.888Z,1.62
2019-05-06T16:24:35.792Z,2.10
2019-05-06T16:27:07.352Z,2.83
2019-05-06T16:29:38.915Z,2.10
2019-05-06T16:32:10.532Z,2.58
2019-05-06T16:34:43.105Z,2.87
2019-05-06T16:37:14.187Z,2.72
2019-05-06T16:39:45.428Z,2.20
2019-05-06T16:42:16.675Z,1.77
2019-05-06T16:44:47.962Z,1.50
2019-05-06T16:47:37.679Z,2.90
2019-05-06T16:50:13.267Z,6.25
2019-05-06T16:52:45.364Z,4.62
2019-05-06T16:55:19.814Z,4.25
2019-05-06T16:57:55.393Z,6.47
2019-05-06T17:00:28.634Z,3.17
2019-05-06T17:03:02.102Z,4.10
2019-05-06T17:05:35.247Z,5.33
2019-05-06T17:08:07.072Z,8.83
2019-05-06T17:10:40.341Z,5.78
2019-05-06T17:13:13.281Z,6.05
2019-05-06T17:15:44.960Z,4.28
2019-05-06T17:18:16.230Z,3.98
2019-05-06T17:20:47.754Z,5.17
2019-05-06T17:23:19.924Z,3.62
2019-05-06T17:25:52.089Z,3.60
2019-05-06T17:28:41.360Z,4.72
2019-05-06T17:31:14.554Z,3.65
2019-05-06T17:33:48.617Z,4.25
2019-05-06T17:36:21.342Z,3.80
2019-05-06T17:38:54.452Z,4.35
2019-05-06T17:41:30.672Z,3.00
2019-05-06T17:43:58.469Z,3.05
2019-05-06T17:46:33.329Z,3.40
2019-05-06T17:49:06.041Z,3.85
2019-05-06T17:51:57.046Z,5.12
2019-05-06T17:54:28.446Z,6.75
2019-05-06T17:57:02.252Z,5.70
2019-05-06T17:59:33.793Z,4.70
2019-05-06T18:02:14.911Z,4.70
2019-05-06T18:04:46.544Z,6.37
2019-05-06T18:07:17.542Z,5.25
2019-05-06T18:09:49.241Z,5.75
2019-05-06T18:12:20.358Z,5.92
2019-05-06T18:14:53.414Z,5.92
2019-05-06T18:17:25.668Z,6.03
2019-05-06T18:19:56.998Z,5.17
2019-05-06T18:22:28.243Z,4.30
2019-05-06T18:25:02.257Z,6.20
2019-05-06T18:27:33.702Z,4.75
2019-05-06T18:30:17.801Z,5.20
2019-05-06T18:32:38.865Z,4.50
2019-05-06T18:35:10.431Z,4.20
2019-05-06T18:37:42.635Z,4.72
2019-05-06T18:42:46.787Z,4.37
2019-05-06T18:45:18.233Z,5.35
2019-05-06T18:47:49.504Z,5.25
2019-05-06T18:50:22.077Z,3.65
2019-05-06T18:52:53.456Z,4.95
2019-05-06T18:55:24.980Z,4.85
2019-05-06T18:57:56.031Z,4.25
2019-05-06T19:00:27.586Z,4.62
2019-05-06T19:02:58.592Z,5.00
2019-05-06T19:05:42.765Z,4.20
2019-05-06T19:08:21.983Z,4.78
2019-05-06T19:10:53.674Z,4.55
2019-05-06T19:13:24.653Z,4.15
2019-05-06T19:15:56.155Z,4.87
2019-05-06T19:18:27.510Z,4.85
2019-05-06T19:20:58.860Z,4.95
2019-05-06T19:23:32.100Z,5.55
2019-05-06T19:26:04.011Z,5.62
2019-05-06T19:28:35.381Z,6.20
2019-05-06T19:31:06.811Z,5.67
2019-05-06T19:33:40.086Z,6.53
2019-05-06T19:36:12.642Z,5.92
2019-05-06T19:38:43.732Z,11.48
2019-05-06T19:41:14.981Z,6.45
2019-05-06T19:43:46.520Z,6.30
2019-05-06T19:46:17.924Z,5.33
2019-05-06T19:48:49.226Z,5.42
2019-05-06T19:51:22.492Z,3.60
2019-05-06T19:53:53.563Z,3.83
2019-05-06T19:56:24.899Z,3.77
2019-05-06T19:58:56.063Z,3.45
2019-05-06T20:01:27.312Z,3.37
2019-05-06T20:03:58.861Z,3.40
2019-05-06T20:06:41.002Z,2.80
2019-05-06T20:09:30.152Z,3.55
2019-05-06T20:12:05.862Z,3.10
2019-05-06T20:14:36.863Z,4.08
2019-05-06T20:17:08.288Z,4.35
2019-05-06T20:19:39.213Z,3.10
2019-05-06T20:22:10.264Z,3.60
2019-05-06T20:24:42.521Z,4.35
2019-05-06T20:27:13.700Z,8.03
2019-05-06T20:29:45.055Z,5.47
2019-05-06T20:32:16.502Z,3.45
2019-05-06T20:34:50.040Z,3.92
2019-05-06T20:37:22.281Z,4.85
2019-05-06T20:39:53.403Z,4.12
2019-05-06T20:42:25.714Z,4.37
2019-05-06T20:44:56.994Z,5.00
2019-05-06T20:47:28.300Z,5.50
2019-05-06T20:49:59.668Z,4.95
2019-05-06T20:52:33.064Z,7.03
2019-05-06T20:55:12.746Z,9.18
2019-05-06T20:57:37.707Z,9.03
2019-05-06T21:00:08.875Z,6.55
2019-05-06T21:02:42.338Z,6.22
2019-05-06T21:05:13.847Z,13.18
2019-05-06T21:07:45.254Z,6.50
2019-05-06T21:10:16.522Z,6.00
2019-05-06T21:12:47.578Z,5.10
2019-05-06T21:15:19.011Z,5.22
2019-05-06T21:17:50.259Z,5.20
2019-05-06T21:20:21.626Z,5.55
2019-05-06T21:22:52.968Z,5.35
2019-05-06T21:25:24.318Z,5.40
2019-05-06T21:27:55.681Z,5.92
2019-05-06T21:30:27.128Z,4.67
2019-05-06T21:32:58.317Z,3.55
2019-05-06T21:35:29.637Z,3.98
2019-05-06T21:38:02.506Z,3.75
2019-05-06T21:40:33.762Z,3.67
2019-05-06T21:43:05.039Z,3.85
2019-05-06T21:45:36.578Z,4.12
2019-05-06T21:48:07.866Z,4.42
2019-05-06T21:50:39.181Z,3.72
2019-05-06T21:53:12.307Z,4.15
2019-05-06T21:55:43.318Z,4.20
2019-05-06T21:58:14.699Z,4.65
2019-05-06T22:00:47.592Z,3.92
2019-05-06T22:03:18.978Z,3.77
2019-05-06T22:05:54.282Z,4.90
2019-05-06T22:08:23.805Z,3.55
2019-05-06T22:10:54.907Z,3.92
2019-05-06T22:13:25.863Z,4.17
2019-05-06T22:15:57.102Z,3.83
2019-05-06T22:18:30.885Z,3.70
2019-05-06T22:21:14.767Z,3.55
2019-05-06T22:24:04.776Z,3.85
2019-05-06T22:26:35.177Z,3.75
2019-05-06T22:29:06.533Z,3.90
2019-05-06T22:31:37.781Z,4.05
2019-05-06T22:34:08.974Z,3.87
2019-05-06T22:36:40.279Z,3.35
2019-05-06T22:39:12.118Z,3.80
2019-05-06T22:41:44.085Z,4.15
2019-05-06T22:44:17.123Z,4.25
2019-05-06T22:46:48.246Z,3.67
2019-05-06T22:49:19.609Z,4.40
2019-05-06T22:51:52.193Z,3.98
2019-05-06T22:54:24.588Z,3.80
2019-05-06T22:56:56.216Z,4.78
2019-05-06T22:59:27.491Z,4.00
2019-05-06T23:02:02.357Z,5.08
2019-05-06T23:04:37.957Z,4.67
2019-05-06T23:07:09.306Z,5.30
2019-05-06T23:09:42.411Z,4.62
2019-05-06T23:12:13.140Z,4.45
2019-05-06T23:14:44.426Z,4.80
2019-05-06T23:17:15.741Z,5.05
2019-05-06T23:19:47.072Z,4.47
2019-05-06T23:22:18.307Z,5.67
2019-05-06T23:24:49.595Z,5.42
2019-05-06T23:27:23.185Z,4.78
2019-05-06T23:29:53.950Z,4.40
2019-05-06T23:32:25.287Z,4.65
2019-05-06T23:34:56.638Z,4.85
2019-05-06T23:37:26.624Z,4.05
2019-05-06T23:40:36.012Z,4.03
2019-05-06T23:43:43.629Z,3.40
2019-05-06T23:46:52.822Z,3.55
2019-05-06T23:50:00.760Z,4.17
2019-05-06T23:53:09.074Z,3.85
2019-05-06T23:56:16.639Z,4.40
2019-05-06T23:58:49.590Z,4.97
